sensor_id;sensor_type;location;lat;lon;timestamp;P1;durP1;ratioP1;P2;durP2;ratioP2
20449;SDS011;10384;51.940;8.432;2023-03-01T00:01:41;8.40;;;4.63;;
20449;SDS011;10384;51.940;8.432;2023-03-01T00:04:07;10.43;;;4.83;;
20449;SDS011;10384;51.940;8.432;2023-03-01T00:06:32;12.63;;;5.10;;
20449;SDS011;10384;51.940;8.432;2023-03-01T00:08:59;11.53;;;5.40;;
20449;SDS011;10384;51.940;8.432;2023-03-01T00:11:26;13.23;;;5.40;;
20449;SDS011;10384;51.940;8.432;2023-03-01T00:13:53;13.07;;;4.70;;
20449;SDS011;10384;51.940;8.432;2023-03-01T00:16:21;11.07;;;4.63;;
20449;SDS011;10384;51.940;8.432;2023-03-01T00:18:47;17.27;;;4.83;;
20449;SDS011;10384;51.940;8.432;2023-03-01T00:21:13;11.30;;;5.10;;
20449;SDS011;10384;51.940;8.432;2023-03-01T00:23:39;14.00;;;6.20;;
20449;SDS011;10384;51.940;8.432;2023-03-01T00:26:07;26.13;;;7.70;;
20449;SDS011;10384;51.940;8.432;2023-03-01T00:28:33;21.53;;;7.00;;
20449;SDS011;10384;51.940;8.432;2023-03-01T00:31:06;16.20;;;6.20;;
20449;SDS011;10384;51.940;8.432;2023-03-01T00:33:32;10.03;;;5.60;;
20449;SDS011;10384;51.940;8.432;2023-03-01T00:35:58;11.40;;;5.20;;
20449;SDS011;10384;51.940;8.432;2023-03-01T00:38:24;11.13;;;5.33;;
20449;SDS011;10384;51.940;8.432;2023-03-01T00:40:50;11.60;;;5.40;;
20449;SDS011;10384;51.940;8.432;2023-03-01T00:43:16;11.80;;;5.43;;
20449;SDS011;10384;51.940;8.432;2023-03-01T00:45:42;10.30;;;5.00;;
20449;SDS011;10384;51.940;8.432;2023-03-01T00:48:08;13.10;;;5.23;;
20449;SDS011;10384;51.940;8.432;2023-03-01T00:50:34;13.63;;;5.10;;
20449;SDS011;10384;51.940;8.432;2023-03-01T00:53:00;9.60;;;4.93;;
20449;SDS011;10384;51.940;8.432;2023-03-01T00:55:26;11.77;;;5.50;;
20449;SDS011;10384;51.940;8.432;2023-03-01T00:57:52;11.83;;;4.93;;
20449;SDS011;10384;51.940;8.432;2023-03-01T01:00:19;11.10;;;5.33;;
20449;SDS011;10384;51.940;8.432;2023-03-01T01:02:45;11.33;;;5.30;;
20449;SDS011;10384;51.940;8.432;2023-03-01T01:05:11;17.63;;;4.87;;
20449;SDS011;10384;51.940;8.432;2023-03-01T01:07:37;12.97;;;5.00;;
20449;SDS011;10384;51.940;8.432;2023-03-01T01:10:03;10.47;;;5.40;;
20449;SDS011;10384;51.940;8.432;2023-03-01T01:12:29;9.80;;;4.43;;
20449;SDS011;10384;51.940;8.432;2023-03-01T01:14:55;9.73;;;4.50;;
20449;SDS011;10384;51.940;8.432;2023-03-01T01:17:22;13.33;;;5.07;;
20449;SDS011;10384;51.940;8.432;2023-03-01T01:19:47;9.77;;;5.13;;
20449;SDS011;10384;51.940;8.432;2023-03-01T01:22:13;8.40;;;4.97;;
20449;SDS011;10384;51.940;8.432;2023-03-01T01:24:39;10.97;;;5.33;;
20449;SDS011;10384;51.940;8.432;2023-03-01T01:27:05;11.77;;;4.97;;
20449;SDS011;10384;51.940;8.432;2023-03-01T01:29:32;12.47;;;4.63;;
20449;SDS011;10384;51.940;8.432;2023-03-01T01:31:58;9.57;;;5.03;;
20449;SDS011;10384;51.940;8.432;2023-03-01T01:34:24;11.03;;;5.37;;
20449;SDS011;10384;51.940;8.432;2023-03-01T01:36:51;12.27;;;4.90;;
20449;SDS011;10384;51.940;8.432;2023-03-01T01:39:21;8.47;;;4.80;;
20449;SDS011;10384;51.940;8.432;2023-03-01T01:41:47;10.50;;;5.50;;
20449;SDS011;10384;51.940;8.432;2023-03-01T01:44:23;9.07;;;4.83;;
20449;SDS011;10384;51.940;8.432;2023-03-01T01:49:22;13.07;;;5.27;;
20449;SDS011;10384;51.940;8.432;2023-03-01T01:51:49;8.83;;;4.10;;
20449;SDS011;10384;51.940;8.432;2023-03-01T01:54:19;11.53;;;4.83;;
20449;SDS011;10384;51.940;8.432;2023-03-01T01:56:49;12.03;;;4.97;;
20449;SDS011;10384;51.940;8.432;2023-03-01T01:59:18;10.13;;;5.00;;
20449;SDS011;10384;51.940;8.432;2023-03-01T02:01:44;7.00;;;4.37;;
20449;SDS011;10384;51.940;8.432;2023-03-01T02:04:10;12.37;;;4.47;;
20449;SDS011;10384;51.940;8.432;2023-03-01T02:06:57;10.37;;;5.17;;
20449;SDS011;10384;51.940;8.432;2023-03-01T02:09:23;9.63;;;4.77;;
20449;SDS011;10384;51.940;8.432;2023-03-01T02:11:50;11.97;;;5.20;;
20449;SDS011;10384;51.940;8.432;2023-03-01T02:14:17;9.97;;;5.10;;
20449;SDS011;10384;51.940;8.432;2023-03-01T02:16:43;11.70;;;5.33;;
20449;SDS011;10384;51.940;8.432;2023-03-01T02:19:10;9.93;;;5.40;;
20449;SDS011;10384;51.940;8.432;2023-03-01T02:21:46;8.40;;;4.37;;
20449;SDS011;10384;51.940;8.432;2023-03-01T02:24:20;10.13;;;4.30;;
20449;SDS011;10384;51.940;8.432;2023-03-01T02:26:51;9.60;;;4.80;;
20449;SDS011;10384;51.940;8.432;2023-03-01T02:29:18;13.37;;;4.93;;
20449;SDS011;10384;51.940;8.432;2023-03-01T02:31:44;10.33;;;5.20;;
20449;SDS011;10384;51.940;8.432;2023-03-01T02:34:20;8.03;;;4.50;;
20449;SDS011;10384;51.940;8.432;2023-03-01T02:36:47;10.40;;;4.97;;
20449;SDS011;10384;51.940;8.432;2023-03-01T02:39:17;8.87;;;4.37;;
20449;SDS011;10384;51.940;8.432;2023-03-01T02:41:46;10.93;;;4.70;;
20449;SDS011;10384;51.940;8.432;2023-03-01T02:44:13;10.80;;;5.27;;
20449;SDS011;10384;51.940;8.432;2023-03-01T02:46:49;8.27;;;4.40;;
20449;SDS011;10384;51.940;8.432;2023-03-01T02:49:26;10.73;;;4.50;;
20449;SDS011;10384;51.940;8.432;2023-03-01T02:57:03;14.37;;;5.87;;
20449;SDS011;10384;51.940;8.432;2023-03-01T02:59:31;11.77;;;5.20;;
20449;SDS011;10384;51.940;8.432;2023-03-01T03:02:04;9.10;;;5.00;;
20449;SDS011;10384;51.940;8.432;2023-03-01T03:04:29;12.30;;;4.77;;
20449;SDS011;10384;51.940;8.432;2023-03-01T03:06:55;14.63;;;5.40;;
20449;SDS011;10384;51.940;8.432;2023-03-01T03:09:21;13.03;;;5.03;;
20449;SDS011;10384;51.940;8.432;2023-03-01T03:11:47;13.13;;;5.07;;
20449;SDS011;10384;51.940;8.432;2023-03-01T03:14:14;10.00;;;5.00;;
20449;SDS011;10384;51.940;8.432;2023-03-01T03:16:41;13.63;;;5.47;;
20449;SDS011;10384;51.940;8.432;2023-03-01T03:19:08;10.53;;;5.03;;
20449;SDS011;10384;51.940;8.432;2023-03-01T03:21:34;13.37;;;5.40;;
20449;SDS011;10384;51.940;8.432;2023-03-01T03:24:00;11.33;;;4.57;;
20449;SDS011;10384;51.940;8.432;2023-03-01T03:26:26;12.90;;;4.83;;
20449;SDS011;10384;51.940;8.432;2023-03-01T03:28:52;12.20;;;5.20;;
20449;SDS011;10384;51.940;8.432;2023-03-01T03:31:18;12.40;;;5.17;;
20449;SDS011;10384;51.940;8.432;2023-03-01T03:33:44;10.50;;;4.63;;
20449;SDS011;10384;51.940;8.432;2023-03-01T03:36:14;20.57;;;5.50;;
20449;SDS011;10384;51.940;8.432;2023-03-01T03:38:42;10.90;;;4.50;;
20449;SDS011;10384;51.940;8.432;2023-03-01T03:41:08;10.67;;;4.93;;
20449;SDS011;10384;51.940;8.432;2023-03-01T03:43:35;11.73;;;5.00;;
20449;SDS011;10384;51.940;8.432;2023-03-01T03:46:02;10.47;;;4.90;;
20449;SDS011;10384;51.940;8.432;2023-03-01T03:48:32;12.20;;;5.37;;
20449;SDS011;10384;51.940;8.432;2023-03-01T03:50:58;13.70;;;5.20;;
20449;SDS011;10384;51.940;8.432;2023-03-01T03:53:26;13.90;;;4.93;;
20449;SDS011;10384;51.940;8.432;2023-03-01T03:55:52;9.80;;;4.50;;
20449;SDS011;10384;51.940;8.432;2023-03-01T03:58:20;16.60;;;6.10;;
20449;SDS011;10384;51.940;8.432;2023-03-01T04:00:46;12.40;;;5.27;;
20449;SDS011;10384;51.940;8.432;2023-03-01T04:03:13;11.77;;;5.87;;
20449;SDS011;10384;51.940;8.432;2023-03-01T04:05:40;11.80;;;5.30;;
20449;SDS011;10384;51.940;8.432;2023-03-01T04:08:06;14.60;;;5.80;;
20449;SDS011;10384;51.940;8.432;2023-03-01T04:10:34;10.83;;;4.77;;
20449;SDS011;10384;51.940;8.432;2023-03-01T04:13:01;11.23;;;5.53;;
20449;SDS011;10384;51.940;8.432;2023-03-01T04:15:27;10.77;;;5.27;;
20449;SDS011;10384;51.940;8.432;2023-03-01T04:17:53;15.40;;;5.20;;
20449;SDS011;10384;51.940;8.432;2023-03-01T04:20:21;14.40;;;6.30;;
20449;SDS011;10384;51.940;8.432;2023-03-01T04:22:50;15.17;;;7.17;;
20449;SDS011;10384;51.940;8.432;2023-03-01T04:25:17;16.73;;;6.40;;
20449;SDS011;10384;51.940;8.432;2023-03-01T04:27:43;15.57;;;6.53;;
20449;SDS011;10384;51.940;8.432;2023-03-01T04:30:09;12.13;;;5.70;;
20449;SDS011;10384;51.940;8.432;2023-03-01T04:32:35;13.70;;;6.03;;
20449;SDS011;10384;51.940;8.432;2023-03-01T04:35:01;10.83;;;5.80;;
20449;SDS011;10384;51.940;8.432;2023-03-01T04:37:27;11.87;;;5.37;;
20449;SDS011;10384;51.940;8.432;2023-03-01T04:39:54;13.47;;;5.50;;
20449;SDS011;10384;51.940;8.432;2023-03-01T04:42:20;18.70;;;5.80;;
20449;SDS011;10384;51.940;8.432;2023-03-01T04:44:46;12.17;;;5.53;;
20449;SDS011;10384;51.940;8.432;2023-03-01T04:47:12;13.50;;;6.30;;
20449;SDS011;10384;51.940;8.432;2023-03-01T04:49:38;15.60;;;5.83;;
20449;SDS011;10384;51.940;8.432;2023-03-01T04:52:04;13.90;;;6.33;;
20449;SDS011;10384;51.940;8.432;2023-03-01T04:54:31;10.63;;;5.47;;
20449;SDS011;10384;51.940;8.432;2023-03-01T04:56:58;12.33;;;5.83;;
20449;SDS011;10384;51.940;8.432;2023-03-01T04:59:24;12.13;;;5.50;;
20449;SDS011;10384;51.940;8.432;2023-03-01T05:01:51;12.07;;;5.87;;
20449;SDS011;10384;51.940;8.432;2023-03-01T05:04:17;11.30;;;5.77;;
20449;SDS011;10384;51.940;8.432;2023-03-01T05:06:43;12.33;;;6.53;;
20449;SDS011;10384;51.940;8.432;2023-03-01T05:09:09;12.50;;;6.67;;
20449;SDS011;10384;51.940;8.432;2023-03-01T05:11:36;12.57;;;5.83;;
20449;SDS011;10384;51.940;8.432;2023-03-01T05:14:02;12.03;;;5.43;;
20449;SDS011;10384;51.940;8.432;2023-03-01T05:16:28;15.97;;;6.57;;
20449;SDS011;10384;51.940;8.432;2023-03-01T05:18:55;15.67;;;5.87;;
20449;SDS011;10384;51.940;8.432;2023-03-01T05:21:21;18.53;;;5.57;;
20449;SDS011;10384;51.940;8.432;2023-03-01T05:23:48;15.17;;;6.33;;
20449;SDS011;10384;51.940;8.432;2023-03-01T05:26:14;12.80;;;5.90;;
20449;SDS011;10384;51.940;8.432;2023-03-01T05:28:41;13.83;;;6.07;;
20449;SDS011;10384;51.940;8.432;2023-03-01T05:31:07;13.70;;;6.07;;
20449;SDS011;10384;51.940;8.432;2023-03-01T05:33:35;13.30;;;6.17;;
20449;SDS011;10384;51.940;8.432;2023-03-01T05:36:02;13.13;;;6.00;;
20449;SDS011;10384;51.940;8.432;2023-03-01T05:38:28;14.90;;;6.07;;
20449;SDS011;10384;51.940;8.432;2023-03-01T05:40:54;12.97;;;6.40;;
20449;SDS011;10384;51.940;8.432;2023-03-01T05:43:20;11.23;;;5.87;;
20449;SDS011;10384;51.940;8.432;2023-03-01T05:45:46;19.17;;;6.37;;
20449;SDS011;10384;51.940;8.432;2023-03-01T05:48:12;11.60;;;5.37;;
20449;SDS011;10384;51.940;8.432;2023-03-01T05:50:42;13.37;;;5.90;;
20449;SDS011;10384;51.940;8.432;2023-03-01T05:53:15;14.23;;;5.67;;
20449;SDS011;10384;51.940;8.432;2023-03-01T05:55:42;13.37;;;5.80;;
20449;SDS011;10384;51.940;8.432;2023-03-01T05:58:12;14.90;;;6.20;;
20449;SDS011;10384;51.940;8.432;2023-03-01T06:00:41;10.07;;;5.27;;
20449;SDS011;10384;51.940;8.432;2023-03-01T06:03:09;14.80;;;6.03;;
20449;SDS011;10384;51.940;8.432;2023-03-01T06:05:36;13.77;;;5.93;;
20449;SDS011;10384;51.940;8.432;2023-03-01T06:08:02;12.13;;;5.63;;
20449;SDS011;10384;51.940;8.432;2023-03-01T06:10:28;14.97;;;6.03;;
20449;SDS011;10384;51.940;8.432;2023-03-01T06:12:54;13.80;;;5.40;;
20449;SDS011;10384;51.940;8.432;2023-03-01T06:15:20;17.83;;;6.33;;
20449;SDS011;10384;51.940;8.432;2023-03-01T06:17:46;17.50;;;6.23;;
20449;SDS011;10384;51.940;8.432;2023-03-01T06:20:17;15.23;;;5.73;;
20449;SDS011;10384;51.940;8.432;2023-03-01T06:22:43;17.20;;;6.07;;
20449;SDS011;10384;51.940;8.432;2023-03-01T06:25:10;15.40;;;6.10;;
20449;SDS011;10384;51.940;8.432;2023-03-01T06:27:37;12.53;;;5.67;;
20449;SDS011;10384;51.940;8.432;2023-03-01T06:30:03;16.77;;;5.90;;
20449;SDS011;10384;51.940;8.432;2023-03-01T06:32:29;14.20;;;6.10;;
20449;SDS011;10384;51.940;8.432;2023-03-01T06:34:56;13.73;;;5.90;;
20449;SDS011;10384;51.940;8.432;2023-03-01T06:37:23;17.67;;;6.27;;
20449;SDS011;10384;51.940;8.432;2023-03-01T06:39:49;11.40;;;5.37;;
20449;SDS011;10384;51.940;8.432;2023-03-01T06:42:15;14.40;;;6.10;;
20449;SDS011;10384;51.940;8.432;2023-03-01T06:44:41;14.43;;;6.43;;
20449;SDS011;10384;51.940;8.432;2023-03-01T06:47:07;15.47;;;6.53;;
20449;SDS011;10384;51.940;8.432;2023-03-01T06:49:33;13.77;;;6.27;;
20449;SDS011;10384;51.940;8.432;2023-03-01T06:51:59;16.27;;;6.50;;
20449;SDS011;10384;51.940;8.432;2023-03-01T06:54:25;11.60;;;6.07;;
20449;SDS011;10384;51.940;8.432;2023-03-01T06:56:51;16.20;;;6.63;;
20449;SDS011;10384;51.940;8.432;2023-03-01T06:59:17;15.87;;;6.67;;
20449;SDS011;10384;51.940;8.432;2023-03-01T07:01:43;13.60;;;5.80;;
20449;SDS011;10384;51.940;8.432;2023-03-01T07:04:10;17.30;;;6.23;;
20449;SDS011;10384;51.940;8.432;2023-03-01T07:06:36;23.50;;;7.50;;
20449;SDS011;10384;51.940;8.432;2023-03-01T07:09:02;23.10;;;6.90;;
20449;SDS011;10384;51.940;8.432;2023-03-01T07:11:28;17.33;;;6.43;;
20449;SDS011;10384;51.940;8.432;2023-03-01T07:13:54;13.73;;;6.63;;
20449;SDS011;10384;51.940;8.432;2023-03-01T07:16:20;17.03;;;6.40;;
20449;SDS011;10384;51.940;8.432;2023-03-01T07:18:46;17.23;;;6.80;;
20449;SDS011;10384;51.940;8.432;2023-03-01T07:21:13;19.53;;;7.30;;
20449;SDS011;10384;51.940;8.432;2023-03-01T07:23:39;15.63;;;7.83;;
20449;SDS011;10384;51.940;8.432;2023-03-01T07:26:05;22.10;;;8.40;;
20449;SDS011;10384;51.940;8.432;2023-03-01T07:28:31;14.57;;;7.50;;
20449;SDS011;10384;51.940;8.432;2023-03-01T07:31:04;20.33;;;7.30;;
20449;SDS011;10384;51.940;8.432;2023-03-01T07:33:30;21.47;;;8.07;;
20449;SDS011;10384;51.940;8.432;2023-03-01T07:35:57;36.40;;;10.63;;
20449;SDS011;10384;51.940;8.432;2023-03-01T07:38:23;29.10;;;9.37;;
20449;SDS011;10384;51.940;8.432;2023-03-01T07:40:49;31.30;;;9.97;;
20449;SDS011;10384;51.940;8.432;2023-03-01T07:43:15;27.83;;;8.97;;
20449;SDS011;10384;51.940;8.432;2023-03-01T07:45:41;30.43;;;8.87;;
20449;SDS011;10384;51.940;8.432;2023-03-01T07:48:07;22.70;;;8.87;;
20449;SDS011;10384;51.940;8.432;2023-03-01T07:50:33;20.07;;;7.73;;
20449;SDS011;10384;51.940;8.432;2023-03-01T07:52:59;15.40;;;7.13;;
20449;SDS011;10384;51.940;8.432;2023-03-01T07:55:25;16.97;;;7.53;;
20449;SDS011;10384;51.940;8.432;2023-03-01T07:57:51;19.83;;;7.70;;
20449;SDS011;10384;51.940;8.432;2023-03-01T08:00:17;19.17;;;7.97;;
20449;SDS011;10384;51.940;8.432;2023-03-01T08:02:43;20.33;;;7.73;;
20449;SDS011;10384;51.940;8.432;2023-03-01T08:05:10;15.77;;;7.83;;
20449;SDS011;10384;51.940;8.432;2023-03-01T08:07:36;16.97;;;7.10;;
20449;SDS011;10384;51.940;8.432;2023-03-01T08:10:02;17.77;;;7.07;;
20449;SDS011;10384;51.940;8.432;2023-03-01T08:12:28;19.03;;;7.40;;
20449;SDS011;10384;51.940;8.432;2023-03-01T08:14:54;16.83;;;7.00;;
20449;SDS011;10384;51.940;8.432;2023-03-01T08:17:20;18.13;;;8.10;;
20449;SDS011;10384;51.940;8.432;2023-03-01T08:19:46;17.17;;;7.73;;
20449;SDS011;10384;51.940;8.432;2023-03-01T08:22:12;17.73;;;7.90;;
20449;SDS011;10384;51.940;8.432;2023-03-01T08:24:38;36.13;;;11.80;;
20449;SDS011;10384;51.940;8.432;2023-03-01T08:27:04;23.10;;;8.30;;
20449;SDS011;10384;51.940;8.432;2023-03-01T08:29:31;22.97;;;9.37;;
20449;SDS011;10384;51.940;8.432;2023-03-01T08:31:57;28.67;;;9.07;;
20449;SDS011;10384;51.940;8.432;2023-03-01T08:34:23;50.60;;;17.60;;
20449;SDS011;10384;51.940;8.432;2023-03-01T08:36:49;25.83;;;8.87;;
20449;SDS011;10384;51.940;8.432;2023-03-01T08:39:17;13.03;;;6.90;;
20449;SDS011;10384;51.940;8.432;2023-03-01T08:41:44;15.07;;;5.40;;
20449;SDS011;10384;51.940;8.432;2023-03-01T08:44:11;14.93;;;6.57;;
20449;SDS011;10384;51.940;8.432;2023-03-01T08:46:39;12.90;;;5.33;;
20449;SDS011;10384;51.940;8.432;2023-03-01T08:49:06;13.40;;;5.77;;
20449;SDS011;10384;51.940;8.432;2023-03-01T08:51:32;18.67;;;6.17;;
20449;SDS011;10384;51.940;8.432;2023-03-01T08:54:02;15.13;;;5.50;;
20449;SDS011;10384;51.940;8.432;2023-03-01T08:56:28;12.10;;;5.67;;
20449;SDS011;10384;51.940;8.432;2023-03-01T08:58:54;13.87;;;5.80;;
20449;SDS011;10384;51.940;8.432;2023-03-01T09:01:20;16.53;;;5.80;;
20449;SDS011;10384;51.940;8.432;2023-03-01T09:03:46;13.00;;;5.20;;
20449;SDS011;10384;51.940;8.432;2023-03-01T09:06:12;12.57;;;5.10;;
20449;SDS011;10384;51.940;8.432;2023-03-01T09:08:40;13.63;;;5.07;;
20449;SDS011;10384;51.940;8.432;2023-03-01T09:11:06;9.93;;;5.00;;
20449;SDS011;10384;51.940;8.432;2023-03-01T09:13:33;12.03;;;5.10;;
20449;SDS011;10384;51.940;8.432;2023-03-01T09:16:03;11.67;;;5.30;;
20449;SDS011;10384;51.940;8.432;2023-03-01T09:18:29;12.70;;;5.43;;
20449;SDS011;10384;51.940;8.432;2023-03-01T09:21:02;12.47;;;5.03;;
20449;SDS011;10384;51.940;8.432;2023-03-01T09:23:32;13.57;;;5.07;;
20449;SDS011;10384;51.940;8.432;2023-03-01T09:25:58;13.17;;;4.80;;
20449;SDS011;10384;51.940;8.432;2023-03-01T09:28:24;11.23;;;5.27;;
20449;SDS011;10384;51.940;8.432;2023-03-01T09:30:50;14.50;;;6.03;;
20449;SDS011;10384;51.940;8.432;2023-03-01T09:33:16;10.90;;;5.17;;
20449;SDS011;10384;51.940;8.432;2023-03-01T09:35:42;21.47;;;6.27;;
20449;SDS011;10384;51.940;8.432;2023-03-01T09:38:12;11.40;;;4.93;;
20449;SDS011;10384;51.940;8.432;2023-03-01T09:40:41;12.63;;;4.77;;
20449;SDS011;10384;51.940;8.432;2023-03-01T09:45:52;11.73;;;4.50;;
20449;SDS011;10384;51.940;8.432;2023-03-01T09:48:20;9.13;;;4.37;;
20449;SDS011;10384;51.940;8.432;2023-03-01T09:50:48;9.67;;;5.00;;
20449;SDS011;10384;51.940;8.432;2023-03-01T09:53:19;12.60;;;4.90;;
20449;SDS011;10384;51.940;8.432;2023-03-01T09:55:46;8.70;;;4.17;;
20449;SDS011;10384;51.940;8.432;2023-03-01T09:58:48;11.27;;;4.60;;
20449;SDS011;10384;51.940;8.432;2023-03-01T10:03:50;13.83;;;4.53;;
20449;SDS011;10384;51.940;8.432;2023-03-01T10:06:21;9.50;;;3.57;;
20449;SDS011;10384;51.940;8.432;2023-03-01T10:11:19;9.20;;;3.87;;
20449;SDS011;10384;51.940;8.432;2023-03-01T10:13:48;9.43;;;4.17;;
20449;SDS011;10384;51.940;8.432;2023-03-01T10:16:21;6.83;;;3.17;;
20449;SDS011;10384;51.940;8.432;2023-03-01T10:18:48;8.73;;;4.20;;
20449;SDS011;10384;51.940;8.432;2023-03-01T10:21:18;8.73;;;4.17;;
20449;SDS011;10384;51.940;8.432;2023-03-01T10:23:44;8.70;;;3.80;;
20449;SDS011;10384;51.940;8.432;2023-03-01T10:26:33;11.17;;;4.17;;
20449;SDS011;10384;51.940;8.432;2023-03-01T10:29:04;9.17;;;4.07;;
20449;SDS011;10384;51.940;8.432;2023-03-01T10:31:34;8.93;;;4.27;;
20449;SDS011;10384;51.940;8.432;2023-03-01T10:34:02;9.60;;;4.40;;
20449;SDS011;10384;51.940;8.432;2023-03-01T10:36:28;12.20;;;4.80;;
20449;SDS011;10384;51.940;8.432;2023-03-01T10:38:57;10.90;;;4.17;;
20449;SDS011;10384;51.940;8.432;2023-03-01T10:41:25;9.93;;;4.80;;
20449;SDS011;10384;51.940;8.432;2023-03-01T10:51:41;13.60;;;5.20;;
20449;SDS011;10384;51.940;8.432;2023-03-01T10:54:27;10.27;;;4.23;;
20449;SDS011;10384;51.940;8.432;2023-03-01T10:57:03;12.20;;;4.73;;
20449;SDS011;10384;51.940;8.432;2023-03-01T10:59:33;11.17;;;4.97;;
20449;SDS011;10384;51.940;8.432;2023-03-01T11:02:04;11.23;;;4.97;;
20449;SDS011;10384;51.940;8.432;2023-03-01T11:04:41;10.67;;;5.77;;
20449;SDS011;10384;51.940;8.432;2023-03-01T11:07:21;10.40;;;5.40;;
20449;SDS011;10384;51.940;8.432;2023-03-01T11:09:47;14.33;;;5.23;;
20449;SDS011;10384;51.940;8.432;2023-03-01T11:12:13;13.53;;;5.20;;
20449;SDS011;10384;51.940;8.432;2023-03-01T11:14:46;11.80;;;5.03;;
20449;SDS011;10384;51.940;8.432;2023-03-01T11:17:13;11.17;;;5.10;;
20449;SDS011;10384;51.940;8.432;2023-03-01T11:19:41;10.17;;;4.77;;
20449;SDS011;10384;51.940;8.432;2023-03-01T11:27:02;9.13;;;3.90;;
20449;SDS011;10384;51.940;8.432;2023-03-01T11:30:03;8.63;;;3.87;;
20449;SDS011;10384;51.940;8.432;2023-03-01T11:32:21;6.93;;;3.60;;
20449;SDS011;10384;51.940;8.432;2023-03-01T11:34:51;13.53;;;3.60;;
20449;SDS011;10384;51.940;8.432;2023-03-01T11:37:41;8.80;;;3.57;;
20449;SDS011;10384;51.940;8.432;2023-03-01T11:40:10;6.67;;;3.20;;
20449;SDS011;10384;51.940;8.432;2023-03-01T11:45:05;8.80;;;3.77;;
20449;SDS011;10384;51.940;8.432;2023-03-01T11:47:49;10.33;;;3.47;;
20449;SDS011;10384;51.940;8.432;2023-03-01T11:53:05;9.33;;;3.70;;
20449;SDS011;10384;51.940;8.432;2023-03-01T12:01:08;9.53;;;3.33;;
20449;SDS011;10384;51.940;8.432;2023-03-01T12:09:02;8.57;;;3.30;;
20449;SDS011;10384;51.940;8.432;2023-03-01T12:16:40;7.40;;;3.70;;
20449;SDS011;10384;51.940;8.432;2023-03-01T12:22:01;8.80;;;3.20;;
20449;SDS011;10384;51.940;8.432;2023-03-01T12:24:37;6.70;;;3.20;;
20449;SDS011;10384;51.940;8.432;2023-03-01T12:29:52;7.53;;;3.30;;
20449;SDS011;10384;51.940;8.432;2023-03-01T12:38:02;9.53;;;3.77;;
20449;SDS011;10384;51.940;8.432;2023-03-01T12:40:34;7.97;;;3.63;;
20449;SDS011;10384;51.940;8.432;2023-03-01T12:43:18;5.03;;;3.20;;
20449;SDS011;10384;51.940;8.432;2023-03-01T12:50:51;7.67;;;3.63;;
20449;SDS011;10384;51.940;8.432;2023-03-01T12:53:22;8.07;;;3.27;;
20449;SDS011;10384;51.940;8.432;2023-03-01T12:55:49;7.40;;;3.47;;
20449;SDS011;10384;51.940;8.432;2023-03-01T13:06:02;7.17;;;3.23;;
20449;SDS011;10384;51.940;8.432;2023-03-01T13:08:42;8.73;;;3.10;;
20449;SDS011;10384;51.940;8.432;2023-03-01T13:11:15;9.27;;;3.50;;
20449;SDS011;10384;51.940;8.432;2023-03-01T13:13:41;6.90;;;3.10;;
20449;SDS011;10384;51.940;8.432;2023-03-01T13:19:05;9.63;;;3.20;;
20449;SDS011;10384;51.940;8.432;2023-03-01T13:21:31;5.30;;;2.80;;
20449;SDS011;10384;51.940;8.432;2023-03-01T13:23:57;7.07;;;3.00;;
20449;SDS011;10384;51.940;8.432;2023-03-01T13:26:23;4.60;;;2.70;;
20449;SDS011;10384;51.940;8.432;2023-03-01T13:36:10;5.23;;;2.67;;
20449;SDS011;10384;51.940;8.432;2023-03-01T13:41:10;4.83;;;2.27;;
20449;SDS011;10384;51.940;8.432;2023-03-01T13:43:38;7.70;;;2.53;;
20449;SDS011;10384;51.940;8.432;2023-03-01T13:46:08;6.43;;;2.43;;
20449;SDS011;10384;51.940;8.432;2023-03-01T13:48:36;5.60;;;2.33;;
20449;SDS011;10384;51.940;8.432;2023-03-01T13:51:04;6.50;;;2.50;;
20449;SDS011;10384;51.940;8.432;2023-03-01T13:53:37;4.47;;;2.33;;
20449;SDS011;10384;51.940;8.432;2023-03-01T13:56:15;5.93;;;2.50;;
20449;SDS011;10384;51.940;8.432;2023-03-01T13:58:55;7.90;;;2.20;;
20449;SDS011;10384;51.940;8.432;2023-03-01T14:03:48;7.17;;;2.67;;
20449;SDS011;10384;51.940;8.432;2023-03-01T14:06:15;6.13;;;2.50;;
20449;SDS011;10384;51.940;8.432;2023-03-01T14:08:45;5.17;;;2.17;;
20449;SDS011;10384;51.940;8.432;2023-03-01T14:19:36;5.33;;;2.47;;
20449;SDS011;10384;51.940;8.432;2023-03-01T14:22:13;4.10;;;2.17;;
20449;SDS011;10384;51.940;8.432;2023-03-01T14:24:50;5.13;;;2.40;;
20449;SDS011;10384;51.940;8.432;2023-03-01T14:27:16;4.27;;;2.27;;
20449;SDS011;10384;51.940;8.432;2023-03-01T14:29:43;7.50;;;2.30;;
20449;SDS011;10384;51.940;8.432;2023-03-01T14:32:20;4.23;;;2.10;;
20449;SDS011;10384;51.940;8.432;2023-03-01T14:34:46;5.50;;;2.23;;
20449;SDS011;10384;51.940;8.432;2023-03-01T14:37:17;5.83;;;2.27;;
20449;SDS011;10384;51.940;8.432;2023-03-01T14:39:44;6.63;;;2.17;;
20449;SDS011;10384;51.940;8.432;2023-03-01T14:42:11;3.90;;;2.10;;
20449;SDS011;10384;51.940;8.432;2023-03-01T14:44:37;6.67;;;2.70;;
20449;SDS011;10384;51.940;8.432;2023-03-01T14:47:03;5.90;;;2.40;;
20449;SDS011;10384;51.940;8.432;2023-03-01T14:49:30;11.83;;;2.60;;
20449;SDS011;10384;51.940;8.432;2023-03-01T14:52:05;5.27;;;2.43;;
20449;SDS011;10384;51.940;8.432;2023-03-01T14:56:58;7.60;;;2.43;;
20449;SDS011;10384;51.940;8.432;2023-03-01T14:59:25;5.37;;;2.70;;
20449;SDS011;10384;51.940;8.432;2023-03-01T15:01:51;4.57;;;2.37;;
20449;SDS011;10384;51.940;8.432;2023-03-01T15:04:18;4.20;;;2.53;;
20449;SDS011;10384;51.940;8.432;2023-03-01T15:06:45;8.57;;;2.70;;
20449;SDS011;10384;51.940;8.432;2023-03-01T15:09:13;6.47;;;2.83;;
20449;SDS011;10384;51.940;8.432;2023-03-01T15:11:40;8.00;;;2.90;;
20449;SDS011;10384;51.940;8.432;2023-03-01T15:16:53;7.23;;;3.00;;
20449;SDS011;10384;51.940;8.432;2023-03-01T15:19:19;7.17;;;2.80;;
20449;SDS011;10384;51.940;8.432;2023-03-01T15:21:46;6.40;;;2.80;;
20449;SDS011;10384;51.940;8.432;2023-03-01T15:24:17;4.87;;;2.70;;
20449;SDS011;10384;51.940;8.432;2023-03-01T15:26:58;6.00;;;3.00;;
20449;SDS011;10384;51.940;8.432;2023-03-01T15:29:31;5.70;;;3.20;;
20449;SDS011;10384;51.940;8.432;2023-03-01T15:34:26;7.27;;;2.80;;
20449;SDS011;10384;51.940;8.432;2023-03-01T15:36:53;7.27;;;2.50;;
20449;SDS011;10384;51.940;8.432;2023-03-01T15:42:02;4.57;;;2.27;;
20449;SDS011;10384;51.940;8.432;2023-03-01T15:44:30;5.87;;;2.23;;
20449;SDS011;10384;51.940;8.432;2023-03-01T15:46:56;4.33;;;2.20;;
20449;SDS011;10384;51.940;8.432;2023-03-01T15:49:25;5.23;;;2.40;;
20449;SDS011;10384;51.940;8.432;2023-03-01T15:51:53;4.30;;;2.20;;
20449;SDS011;10384;51.940;8.432;2023-03-01T15:54:21;5.00;;;2.37;;
20449;SDS011;10384;51.940;8.432;2023-03-01T15:56:48;5.70;;;2.73;;
20449;SDS011;10384;51.940;8.432;2023-03-01T15:59:14;4.50;;;2.17;;
20449;SDS011;10384;51.940;8.432;2023-03-01T16:01:40;6.73;;;2.43;;
20449;SDS011;10384;51.940;8.432;2023-03-01T16:04:06;4.67;;;2.53;;
20449;SDS011;10384;51.940;8.432;2023-03-01T16:06:32;4.90;;;2.23;;
20449;SDS011;10384;51.940;8.432;2023-03-01T16:08:58;4.77;;;2.37;;
20449;SDS011;10384;51.940;8.432;2023-03-01T16:11:24;5.10;;;2.40;;
20449;SDS011;10384;51.940;8.432;2023-03-01T16:13:50;6.70;;;2.50;;
20449;SDS011;10384;51.940;8.432;2023-03-01T16:16:16;6.93;;;2.90;;
20449;SDS011;10384;51.940;8.432;2023-03-01T16:18:43;4.40;;;2.20;;
20449;SDS011;10384;51.940;8.432;2023-03-01T16:21:20;6.17;;;3.07;;
20449;SDS011;10384;51.940;8.432;2023-03-01T16:23:46;6.03;;;2.33;;
20449;SDS011;10384;51.940;8.432;2023-03-01T16:26:12;6.77;;;2.77;;
20449;SDS011;10384;51.940;8.432;2023-03-01T16:28:39;4.07;;;2.03;;
20449;SDS011;10384;51.940;8.432;2023-03-01T16:31:05;7.30;;;3.30;;